sensor_id;sensor_type;location;lat;lon;timestamp;P1;durP1;ratioP1;P2;durP2;ratioP2
10150;SDS011;5116;52.318;4.644;2023-04-03T00:00:39;1.40;;;1.30;;
10150;SDS011;5116;52.318;4.644;2023-04-03T00:03:06;1.73;;;1.00;;
10150;SDS011;5116;52.318;4.644;2023-04-03T00:05:34;1.90;;;1.40;;
10150;SDS011;5116;52.318;4.644;2023-04-03T00:08:01;1.30;;;1.07;;
10150;SDS011;5116;52.318;4.644;2023-04-03T00:10:30;1.20;;;1.10;;
10150;SDS011;5116;52.318;4.644;2023-04-03T00:12:58;1.47;;;1.13;;
10150;SDS011;5116;52.318;4.644;2023-04-03T00:15:25;1.00;;;1.00;;
10150;SDS011;5116;52.318;4.644;2023-04-03T00:17:53;1.03;;;1.03;;
10150;SDS011;5116;52.318;4.644;2023-04-03T00:20:20;1.27;;;1.17;;
10150;SDS011;5116;52.318;4.644;2023-04-03T00:22:48;1.10;;;1.00;;
10150;SDS011;5116;52.318;4.644;2023-04-03T00:25:15;1.00;;;1.00;;
10150;SDS011;5116;52.318;4.644;2023-04-03T00:27:43;1.27;;;1.17;;
10150;SDS011;5116;52.318;4.644;2023-04-03T00:30:11;1.00;;;1.00;;
10150;SDS011;5116;52.318;4.644;2023-04-03T00:32:40;1.73;;;1.30;;
10150;SDS011;5116;52.318;4.644;2023-04-03T00:35:07;0.97;;;0.97;;
10150;SDS011;5116;52.318;4.644;2023-04-03T00:37:36;1.30;;;1.20;;
10150;SDS011;5116;52.318;4.644;2023-04-03T00:40:03;1.40;;;1.30;;
10150;SDS011;5116;52.318;4.644;2023-04-03T00:42:31;0.90;;;0.90;;
10150;SDS011;5116;52.318;4.644;2023-04-03T00:47:27;1.10;;;1.00;;
10150;SDS011;5116;52.318;4.644;2023-04-03T00:49:54;1.10;;;1.10;;
10150;SDS011;5116;52.318;4.644;2023-04-03T00:52:22;1.27;;;1.17;;
10150;SDS011;5116;52.318;4.644;2023-04-03T00:54:51;1.83;;;1.17;;
10150;SDS011;5116;52.318;4.644;2023-04-03T00:57:19;1.10;;;1.00;;
10150;SDS011;5116;52.318;4.644;2023-04-03T00:59:49;1.00;;;1.00;;
10150;SDS011;5116;52.318;4.644;2023-04-03T01:02:18;1.00;;;1.00;;
10150;SDS011;5116;52.318;4.644;2023-04-03T01:04:45;1.10;;;1.00;;
10150;SDS011;5116;52.318;4.644;2023-04-03T01:07:18;1.10;;;1.00;;
10150;SDS011;5116;52.318;4.644;2023-04-03T01:09:47;1.10;;;1.00;;
10150;SDS011;5116;52.318;4.644;2023-04-03T01:14:46;1.00;;;1.00;;
10150;SDS011;5116;52.318;4.644;2023-04-03T01:17:26;1.00;;;1.00;;
10150;SDS011;5116;52.318;4.644;2023-04-03T01:22:48;1.00;;;1.00;;
10150;SDS011;5116;52.318;4.644;2023-04-03T01:25:23;1.03;;;0.90;;
10150;SDS011;5116;52.318;4.644;2023-04-03T01:27:51;0.87;;;0.87;;
10150;SDS011;5116;52.318;4.644;2023-04-03T01:30:19;1.10;;;1.10;;
10150;SDS011;5116;52.318;4.644;2023-04-03T01:32:47;0.97;;;0.93;;
10150;SDS011;5116;52.318;4.644;2023-04-03T01:35:16;1.50;;;1.40;;
10150;SDS011;5116;52.318;4.644;2023-04-03T01:37:43;1.17;;;1.07;;
10150;SDS011;5116;52.318;4.644;2023-04-03T01:40:11;1.23;;;1.17;;
10150;SDS011;5116;52.318;4.644;2023-04-03T01:42:38;1.20;;;1.00;;
10150;SDS011;5116;52.318;4.644;2023-04-03T01:45:06;1.10;;;1.10;;
10150;SDS011;5116;52.318;4.644;2023-04-03T01:47:33;1.10;;;1.10;;
10150;SDS011;5116;52.318;4.644;2023-04-03T01:50:01;1.00;;;1.00;;
10150;SDS011;5116;52.318;4.644;2023-04-03T01:52:31;1.43;;;1.10;;
10150;SDS011;5116;52.318;4.644;2023-04-03T01:54:59;1.27;;;1.17;;
10150;SDS011;5116;52.318;4.644;2023-04-03T01:57:26;1.20;;;1.10;;
10150;SDS011;5116;52.318;4.644;2023-04-03T01:59:54;1.20;;;1.10;;
10150;SDS011;5116;52.318;4.644;2023-04-03T02:02:21;1.30;;;1.20;;
10150;SDS011;5116;52.318;4.644;2023-04-03T02:04:51;0.90;;;0.90;;
10150;SDS011;5116;52.318;4.644;2023-04-03T02:07:18;1.10;;;1.10;;
10150;SDS011;5116;52.318;4.644;2023-04-03T02:09:46;1.30;;;1.20;;
10150;SDS011;5116;52.318;4.644;2023-04-03T02:12:13;1.73;;;1.30;;
10150;SDS011;5116;52.318;4.644;2023-04-03T02:14:42;1.33;;;1.23;;
10150;SDS011;5116;52.318;4.644;2023-04-03T02:17:11;0.90;;;0.90;;
10150;SDS011;5116;52.318;4.644;2023-04-03T02:19:39;1.10;;;1.10;;
10150;SDS011;5116;52.318;4.644;2023-04-03T02:22:06;1.33;;;1.23;;
10150;SDS011;5116;52.318;4.644;2023-04-03T02:24:34;1.03;;;1.03;;
10150;SDS011;5116;52.318;4.644;2023-04-03T02:27:02;1.13;;;1.13;;
10150;SDS011;5116;52.318;4.644;2023-04-03T02:29:30;1.30;;;1.20;;
10150;SDS011;5116;52.318;4.644;2023-04-03T02:31:57;1.67;;;1.00;;
10150;SDS011;5116;52.318;4.644;2023-04-03T02:34:25;1.30;;;1.20;;
10150;SDS011;5116;52.318;4.644;2023-04-03T02:36:52;2.50;;;1.20;;
10150;SDS011;5116;52.318;4.644;2023-04-03T02:39:20;1.40;;;1.17;;
10150;SDS011;5116;52.318;4.644;2023-04-03T02:41:48;1.43;;;1.33;;
10150;SDS011;5116;52.318;4.644;2023-04-03T02:44:21;1.20;;;1.10;;
10150;SDS011;5116;52.318;4.644;2023-04-03T02:46:51;1.00;;;1.00;;
10150;SDS011;5116;52.318;4.644;2023-04-03T02:49:19;1.20;;;1.10;;
10150;SDS011;5116;52.318;4.644;2023-04-03T02:51:46;1.10;;;1.10;;
10150;SDS011;5116;52.318;4.644;2023-04-03T02:54:14;1.63;;;1.10;;
10150;SDS011;5116;52.318;4.644;2023-04-03T02:56:46;1.13;;;1.13;;
10150;SDS011;5116;52.318;4.644;2023-04-03T02:59:14;1.00;;;1.00;;
10150;SDS011;5116;52.318;4.644;2023-04-03T03:01:42;1.10;;;1.10;;
10150;SDS011;5116;52.318;4.644;2023-04-03T03:04:09;1.53;;;1.37;;
10150;SDS011;5116;52.318;4.644;2023-04-03T03:06:37;1.30;;;1.20;;
10150;SDS011;5116;52.318;4.644;2023-04-03T03:09:05;1.33;;;1.30;;
10150;SDS011;5116;52.318;4.644;2023-04-03T03:11:33;1.30;;;1.20;;
10150;SDS011;5116;52.318;4.644;2023-04-03T03:14:01;2.33;;;1.50;;
10150;SDS011;5116;52.318;4.644;2023-04-03T03:16:29;1.33;;;1.23;;
10150;SDS011;5116;52.318;4.644;2023-04-03T03:18:56;1.00;;;1.00;;
10150;SDS011;5116;52.318;4.644;2023-04-03T03:21:24;1.43;;;1.20;;
10150;SDS011;5116;52.318;4.644;2023-04-03T03:23:52;1.30;;;1.20;;
10150;SDS011;5116;52.318;4.644;2023-04-03T03:26:20;1.50;;;1.27;;
10150;SDS011;5116;52.318;4.644;2023-04-03T03:28:47;1.90;;;1.20;;
10150;SDS011;5116;52.318;4.644;2023-04-03T03:31:15;1.73;;;1.13;;
10150;SDS011;5116;52.318;4.644;2023-04-03T03:33:42;1.10;;;1.10;;
10150;SDS011;5116;52.318;4.644;2023-04-03T03:36:10;1.50;;;1.40;;
10150;SDS011;5116;52.318;4.644;2023-04-03T03:38:37;1.23;;;1.10;;
10150;SDS011;5116;52.318;4.644;2023-04-03T03:41:05;1.43;;;1.33;;
10150;SDS011;5116;52.318;4.644;2023-04-03T03:43:34;1.30;;;1.20;;
10150;SDS011;5116;52.318;4.644;2023-04-03T03:46:03;0.90;;;0.90;;
10150;SDS011;5116;52.318;4.644;2023-04-03T03:48:31;0.93;;;0.93;;
10150;SDS011;5116;52.318;4.644;2023-04-03T03:50:58;0.90;;;0.90;;
10150;SDS011;5116;52.318;4.644;2023-04-03T03:53:30;1.40;;;1.30;;
10150;SDS011;5116;52.318;4.644;2023-04-03T03:56:02;1.33;;;1.23;;
10150;SDS011;5116;52.318;4.644;2023-04-03T03:58:31;1.37;;;1.27;;
10150;SDS011;5116;52.318;4.644;2023-04-03T04:01:05;1.33;;;1.23;;
10150;SDS011;5116;52.318;4.644;2023-04-03T04:03:39;1.50;;;1.40;;
10150;SDS011;5116;52.318;4.644;2023-04-03T04:06:08;2.73;;;1.83;;
10150;SDS011;5116;52.318;4.644;2023-04-03T04:08:36;1.47;;;1.30;;
10150;SDS011;5116;52.318;4.644;2023-04-03T04:11:06;2.10;;;1.30;;
10150;SDS011;5116;52.318;4.644;2023-04-03T04:13:34;1.07;;;1.07;;
10150;SDS011;5116;52.318;4.644;2023-04-03T04:16:03;1.30;;;1.20;;
10150;SDS011;5116;52.318;4.644;2023-04-03T04:18:31;1.30;;;1.20;;
10150;SDS011;5116;52.318;4.644;2023-04-03T04:20:59;1.20;;;1.20;;
10150;SDS011;5116;52.318;4.644;2023-04-03T04:23:27;1.60;;;1.30;;
10150;SDS011;5116;52.318;4.644;2023-04-03T04:25:56;1.50;;;1.40;;
10150;SDS011;5116;52.318;4.644;2023-04-03T04:28:25;1.37;;;1.27;;
10150;SDS011;5116;52.318;4.644;2023-04-03T04:30:54;1.67;;;1.40;;
10150;SDS011;5116;52.318;4.644;2023-04-03T04:33:24;1.47;;;1.37;;
10150;SDS011;5116;52.318;4.644;2023-04-03T04:35:52;1.33;;;1.23;;
10150;SDS011;5116;52.318;4.644;2023-04-03T04:38:20;1.40;;;1.33;;
10150;SDS011;5116;52.318;4.644;2023-04-03T04:40:50;1.20;;;1.13;;
10150;SDS011;5116;52.318;4.644;2023-04-03T04:43:18;1.80;;;1.53;;
10150;SDS011;5116;52.318;4.644;2023-04-03T04:45:49;1.50;;;1.40;;
10150;SDS011;5116;52.318;4.644;2023-04-03T04:48:18;1.37;;;1.27;;
10150;SDS011;5116;52.318;4.644;2023-04-03T04:50:46;1.47;;;1.33;;
10150;SDS011;5116;52.318;4.644;2023-04-03T04:53:15;1.50;;;1.40;;
10150;SDS011;5116;52.318;4.644;2023-04-03T04:55:45;2.30;;;1.50;;
10150;SDS011;5116;52.318;4.644;2023-04-03T04:58:12;1.87;;;1.60;;
10150;SDS011;5116;52.318;4.644;2023-04-03T05:00:40;1.83;;;1.73;;
10150;SDS011;5116;52.318;4.644;2023-04-03T05:03:09;1.77;;;1.67;;
10150;SDS011;5116;52.318;4.644;2023-04-03T05:05:36;1.50;;;1.40;;
10150;SDS011;5116;52.318;4.644;2023-04-03T05:08:05;1.73;;;1.57;;
10150;SDS011;5116;52.318;4.644;2023-04-03T05:10:37;2.10;;;1.40;;
10150;SDS011;5116;52.318;4.644;2023-04-03T05:13:07;1.93;;;1.60;;
10150;SDS011;5116;52.318;4.644;2023-04-03T05:15:34;1.40;;;1.30;;
10150;SDS011;5116;52.318;4.644;2023-04-03T05:18:05;1.60;;;1.50;;
10150;SDS011;5116;52.318;4.644;2023-04-03T05:20:35;1.50;;;1.40;;
10150;SDS011;5116;52.318;4.644;2023-04-03T05:23:06;2.07;;;1.57;;
10150;SDS011;5116;52.318;4.644;2023-04-03T05:25:34;1.53;;;1.43;;
10150;SDS011;5116;52.318;4.644;2023-04-03T05:28:05;3.63;;;1.70;;
10150;SDS011;5116;52.318;4.644;2023-04-03T05:30:32;2.63;;;2.20;;
10150;SDS011;5116;52.318;4.644;2023-04-03T05:33:02;1.97;;;1.73;;
10150;SDS011;5116;52.318;4.644;2023-04-03T05:35:45;1.70;;;1.60;;
10150;SDS011;5116;52.318;4.644;2023-04-03T05:38:18;1.40;;;1.33;;
10150;SDS011;5116;52.318;4.644;2023-04-03T05:40:46;1.70;;;1.60;;
10150;SDS011;5116;52.318;4.644;2023-04-03T05:43:14;1.73;;;1.60;;
10150;SDS011;5116;52.318;4.644;2023-04-03T05:45:43;2.20;;;1.97;;
10150;SDS011;5116;52.318;4.644;2023-04-03T05:48:13;2.63;;;1.63;;
10150;SDS011;5116;52.318;4.644;2023-04-03T05:50:41;2.07;;;1.87;;
10150;SDS011;5116;52.318;4.644;2023-04-03T05:53:15;1.90;;;1.80;;
10150;SDS011;5116;52.318;4.644;2023-04-03T05:55:44;1.63;;;1.50;;
10150;SDS011;5116;52.318;4.644;2023-04-03T05:58:12;1.90;;;1.80;;
10150;SDS011;5116;52.318;4.644;2023-04-03T06:00:41;2.03;;;1.80;;
10150;SDS011;5116;52.318;4.644;2023-04-03T06:03:08;1.77;;;1.67;;
10150;SDS011;5116;52.318;4.644;2023-04-03T06:05:36;3.60;;;1.80;;
10150;SDS011;5116;52.318;4.644;2023-04-03T06:08:04;2.87;;;2.30;;
10150;SDS011;5116;52.318;4.644;2023-04-03T06:10:32;1.70;;;1.60;;
10150;SDS011;5116;52.318;4.644;2023-04-03T06:12:59;1.70;;;1.60;;
10150;SDS011;5116;52.318;4.644;2023-04-03T06:15:27;2.80;;;2.00;;
10150;SDS011;5116;52.318;4.644;2023-04-03T06:17:55;2.10;;;1.90;;
10150;SDS011;5116;52.318;4.644;2023-04-03T06:20:23;1.90;;;1.80;;
10150;SDS011;5116;52.318;4.644;2023-04-03T06:22:52;1.97;;;1.77;;
10150;SDS011;5116;52.318;4.644;2023-04-03T06:25:19;2.27;;;1.80;;
10150;SDS011;5116;52.318;4.644;2023-04-03T06:27:48;2.20;;;2.00;;
10150;SDS011;5116;52.318;4.644;2023-04-03T06:30:15;1.90;;;1.80;;
10150;SDS011;5116;52.318;4.644;2023-04-03T06:32:43;1.83;;;1.70;;
10150;SDS011;5116;52.318;4.644;2023-04-03T06:35:11;2.70;;;1.77;;
10150;SDS011;5116;52.318;4.644;2023-04-03T06:37:38;1.87;;;1.50;;
10150;SDS011;5116;52.318;4.644;2023-04-03T06:40:06;2.58;;;2.15;;
10150;SDS011;5116;52.318;4.644;2023-04-03T06:42:33;2.10;;;2.00;;
10150;SDS011;5116;52.318;4.644;2023-04-03T06:45:10;1.73;;;1.63;;
10150;SDS011;5116;52.318;4.644;2023-04-03T06:47:38;1.70;;;1.60;;
10150;SDS011;5116;52.318;4.644;2023-04-03T06:50:05;1.73;;;1.63;;
10150;SDS011;5116;52.318;4.644;2023-04-03T06:52:33;2.07;;;1.70;;
10150;SDS011;5116;52.318;4.644;2023-04-03T06:55:01;3.30;;;2.13;;
10150;SDS011;5116;52.318;4.644;2023-04-03T06:57:29;2.10;;;2.00;;
10150;SDS011;5116;52.318;4.644;2023-04-03T06:59:56;1.67;;;1.50;;
10150;SDS011;5116;52.318;4.644;2023-04-03T07:02:24;2.40;;;1.70;;
10150;SDS011;5116;52.318;4.644;2023-04-03T07:04:51;1.73;;;1.63;;
10150;SDS011;5116;52.318;4.644;2023-04-03T07:07:19;1.87;;;1.63;;
10150;SDS011;5116;52.318;4.644;2023-04-03T07:09:46;2.70;;;1.80;;
10150;SDS011;5116;52.318;4.644;2023-04-03T07:12:14;2.00;;;1.80;;
10150;SDS011;5116;52.318;4.644;2023-04-03T07:14:42;2.10;;;1.90;;
10150;SDS011;5116;52.318;4.644;2023-04-03T07:17:10;1.60;;;1.50;;
10150;SDS011;5116;52.318;4.644;2023-04-03T07:19:37;2.03;;;1.70;;
10150;SDS011;5116;52.318;4.644;2023-04-03T07:22:04;1.70;;;1.60;;
10150;SDS011;5116;52.318;4.644;2023-04-03T07:24:32;1.67;;;1.50;;
10150;SDS011;5116;52.318;4.644;2023-04-03T07:27:00;2.23;;;1.83;;
10150;SDS011;5116;52.318;4.644;2023-04-03T07:29:28;2.23;;;1.60;;
10150;SDS011;5116;52.318;4.644;2023-04-03T07:31:59;1.80;;;1.70;;
10150;SDS011;5116;52.318;4.644;2023-04-03T07:34:27;2.10;;;1.90;;
10150;SDS011;5116;52.318;4.644;2023-04-03T07:36:54;1.53;;;1.43;;
10150;SDS011;5116;52.318;4.644;2023-04-03T07:39:23;3.03;;;1.73;;
10150;SDS011;5116;52.318;4.644;2023-04-03T07:41:50;1.77;;;1.57;;
10150;SDS011;5116;52.318;4.644;2023-04-03T07:44:18;1.90;;;1.80;;
10150;SDS011;5116;52.318;4.644;2023-04-03T07:46:45;1.50;;;1.40;;
10150;SDS011;5116;52.318;4.644;2023-04-03T07:49:13;3.23;;;1.60;;
10150;SDS011;5116;52.318;4.644;2023-04-03T07:51:40;1.63;;;1.53;;
10150;SDS011;5116;52.318;4.644;2023-04-03T07:54:08;1.90;;;1.60;;
10150;SDS011;5116;52.318;4.644;2023-04-03T07:56:38;1.80;;;1.70;;
10150;SDS011;5116;52.318;4.644;2023-04-03T07:59:05;1.80;;;1.70;;
10150;SDS011;5116;52.318;4.644;2023-04-03T08:01:33;1.63;;;1.40;;
10150;SDS011;5116;52.318;4.644;2023-04-03T08:04:00;1.77;;;1.67;;
10150;SDS011;5116;52.318;4.644;2023-04-03T08:06:28;1.77;;;1.40;;
10150;SDS011;5116;52.318;4.644;2023-04-03T08:09:12;1.70;;;1.60;;
10150;SDS011;5116;52.318;4.644;2023-04-03T08:11:40;1.63;;;1.53;;
10150;SDS011;5116;52.318;4.644;2023-04-03T08:14:08;1.70;;;1.60;;
10150;SDS011;5116;52.318;4.644;2023-04-03T08:16:42;1.80;;;1.70;;
10150;SDS011;5116;52.318;4.644;2023-04-03T08:19:10;1.40;;;1.40;;
10150;SDS011;5116;52.318;4.644;2023-04-03T08:21:50;2.17;;;1.97;;
10150;SDS011;5116;52.318;4.644;2023-04-03T08:24:17;2.93;;;1.80;;
10150;SDS011;5116;52.318;4.644;2023-04-03T08:26:45;2.03;;;1.63;;
10150;SDS011;5116;52.318;4.644;2023-04-03T08:29:12;3.30;;;1.50;;
10150;SDS011;5116;52.318;4.644;2023-04-03T08:31:40;1.70;;;1.60;;
10150;SDS011;5116;52.318;4.644;2023-04-03T08:34:08;1.30;;;1.20;;
10150;SDS011;5116;52.318;4.644;2023-04-03T08:36:35;1.57;;;1.47;;
10150;SDS011;5116;52.318;4.644;2023-04-03T08:39:02;1.70;;;1.60;;
10150;SDS011;5116;52.318;4.644;2023-04-03T08:41:40;1.30;;;1.23;;
10150;SDS011;5116;52.318;4.644;2023-04-03T08:52:10;1.60;;;1.50;;
10150;SDS011;5116;52.318;4.644;2023-04-03T08:54:52;1.70;;;1.60;;
10150;SDS011;5116;52.318;4.644;2023-04-03T08:57:26;1.50;;;1.40;;
10150;SDS011;5116;52.318;4.644;2023-04-03T08:59:54;1.30;;;1.20;;
10150;SDS011;5116;52.318;4.644;2023-04-03T09:02:30;1.40;;;1.27;;
10150;SDS011;5116;52.318;4.644;2023-04-03T09:04:58;2.17;;;1.33;;
10150;SDS011;5116;52.318;4.644;2023-04-03T09:07:35;1.77;;;1.50;;
10150;SDS011;5116;52.318;4.644;2023-04-03T09:10:05;1.20;;;1.10;;
10150;SDS011;5116;52.318;4.644;2023-04-03T09:12:43;1.27;;;1.20;;
10150;SDS011;5116;52.318;4.644;2023-04-03T09:15:22;1.50;;;1.40;;
10150;SDS011;5116;52.318;4.644;2023-04-03T09:26:05;1.00;;;1.00;;
10150;SDS011;5116;52.318;4.644;2023-04-03T09:28:37;1.20;;;1.10;;
10150;SDS011;5116;52.318;4.644;2023-04-03T09:31:20;1.10;;;1.00;;
10150;SDS011;5116;52.318;4.644;2023-04-03T09:33:49;1.30;;;1.20;;
10150;SDS011;5116;52.318;4.644;2023-04-03T09:39:20;1.03;;;1.00;;
10150;SDS011;5116;52.318;4.644;2023-04-03T09:44:29;1.00;;;1.00;;
10150;SDS011;5116;52.318;4.644;2023-04-03T09:46:57;1.00;;;1.00;;
10150;SDS011;5116;52.318;4.644;2023-04-03T09:49:26;1.10;;;1.10;;
10150;SDS011;5116;52.318;4.644;2023-04-03T09:51:53;2.37;;;1.33;;
10150;SDS011;5116;52.318;4.644;2023-04-03T09:54:31;1.60;;;1.30;;
10150;SDS011;5116;52.318;4.644;2023-04-03T09:57:04;1.47;;;1.40;;
10150;SDS011;5116;52.318;4.644;2023-04-03T09:59:33;1.10;;;1.10;;
10150;SDS011;5116;52.318;4.644;2023-04-03T10:02:16;1.30;;;1.20;;
10150;SDS011;5116;52.318;4.644;2023-04-03T10:04:47;1.20;;;1.10;;
10150;SDS011;5116;52.318;4.644;2023-04-03T10:07:35;0.97;;;0.97;;
10150;SDS011;5116;52.318;4.644;2023-04-03T10:10:24;1.17;;;1.07;;
10150;SDS011;5116;52.318;4.644;2023-04-03T10:13:09;1.30;;;1.20;;
10150;SDS011;5116;52.318;4.644;2023-04-03T10:18:37;1.10;;;1.10;;
10150;SDS011;5116;52.318;4.644;2023-04-03T10:21:29;1.03;;;1.03;;
10150;SDS011;5116;52.318;4.644;2023-04-03T10:24:09;1.27;;;1.13;;
10150;SDS011;5116;52.318;4.644;2023-04-03T10:31:45;1.30;;;1.20;;
10150;SDS011;5116;52.318;4.644;2023-04-03T10:34:28;1.20;;;1.17;;
10150;SDS011;5116;52.318;4.644;2023-04-03T10:37:03;0.97;;;0.97;;
10150;SDS011;5116;52.318;4.644;2023-04-03T10:42:15;1.30;;;1.20;;
10150;SDS011;5116;52.318;4.644;2023-04-03T10:57:36;1.03;;;0.93;;
10150;SDS011;5116;52.318;4.644;2023-04-03T11:00:13;0.97;;;0.97;;
10150;SDS011;5116;52.318;4.644;2023-04-03T11:02:59;1.10;;;1.10;;
10150;SDS011;5116;52.318;4.644;2023-04-03T11:05:39;1.40;;;1.30;;
10150;SDS011;5116;52.318;4.644;2023-04-03T11:08:13;1.00;;;1.00;;
10150;SDS011;5116;52.318;4.644;2023-04-03T11:10:45;1.00;;;1.00;;
10150;SDS011;5116;52.318;4.644;2023-04-03T11:13:16;1.07;;;1.00;;
10150;SDS011;5116;52.318;4.644;2023-04-03T11:15:44;1.07;;;1.07;;
10150;SDS011;5116;52.318;4.644;2023-04-03T11:18:17;1.00;;;1.00;;
10150;SDS011;5116;52.318;4.644;2023-04-03T11:20:50;1.00;;;1.00;;
10150;SDS011;5116;52.318;4.644;2023-04-03T11:23:36;1.03;;;1.03;;
10150;SDS011;5116;52.318;4.644;2023-04-03T11:26:19;1.00;;;1.00;;
10150;SDS011;5116;52.318;4.644;2023-04-03T11:28:51;0.90;;;0.90;;
10150;SDS011;5116;52.318;4.644;2023-04-03T11:31:29;1.43;;;1.00;;
10150;SDS011;5116;52.318;4.644;2023-04-03T11:34:05;2.47;;;1.00;;
10150;SDS011;5116;52.318;4.644;2023-04-03T11:36:39;1.10;;;1.03;;
10150;SDS011;5116;52.318;4.644;2023-04-03T11:39:24;1.00;;;1.00;;
10150;SDS011;5116;52.318;4.644;2023-04-03T11:41:52;1.10;;;1.10;;
10150;SDS011;5116;52.318;4.644;2023-04-03T11:44:38;1.10;;;1.10;;
10150;SDS011;5116;52.318;4.644;2023-04-03T11:47:07;1.00;;;1.00;;
10150;SDS011;5116;52.318;4.644;2023-04-03T11:49:51;0.93;;;0.93;;
10150;SDS011;5116;52.318;4.644;2023-04-03T12:14:20;0.90;;;0.90;;
10150;SDS011;5116;52.318;4.644;2023-04-03T12:16:28;0.80;;;0.80;;
10150;SDS011;5116;52.318;4.644;2023-04-03T12:19:03;1.07;;;1.00;;
10150;SDS011;5116;52.318;4.644;2023-04-03T12:29:37;1.90;;;0.90;;
10150;SDS011;5116;52.318;4.644;2023-04-03T12:45:40;0.90;;;0.90;;
10150;SDS011;5116;52.318;4.644;2023-04-03T12:48:12;1.00;;;1.00;;
10150;SDS011;5116;52.318;4.644;2023-04-03T12:50:41;1.13;;;1.00;;
10150;SDS011;5116;52.318;4.644;2023-04-03T12:53:25;1.00;;;1.00;;
10150;SDS011;5116;52.318;4.644;2023-04-03T12:55:54;0.93;;;0.93;;
10150;SDS011;5116;52.318;4.644;2023-04-03T12:58:25;0.90;;;0.90;;
10150;SDS011;5116;52.318;4.644;2023-04-03T13:01:04;1.80;;;1.00;;
10150;SDS011;5116;52.318;4.644;2023-04-03T13:03:40;0.83;;;0.83;;
10150;SDS011;5116;52.318;4.644;2023-04-03T13:06:10;3.13;;;1.10;;
10150;SDS011;5116;52.318;4.644;2023-04-03T13:08:48;1.10;;;1.00;;
10150;SDS011;5116;52.318;4.644;2023-04-03T13:11:16;0.80;;;0.80;;
10150;SDS011;5116;52.318;4.644;2023-04-03T13:14:01;1.90;;;0.90;;
10150;SDS011;5116;52.318;4.644;2023-04-03T13:16:32;1.00;;;1.00;;
10150;SDS011;5116;52.318;4.644;2023-04-03T13:19:00;0.90;;;0.90;;
10150;SDS011;5116;52.318;4.644;2023-04-03T13:21:29;0.87;;;0.87;;
10150;SDS011;5116;52.318;4.644;2023-04-03T13:23:59;0.80;;;0.80;;
10150;SDS011;5116;52.318;4.644;2023-04-03T13:26:40;0.80;;;0.80;;
10150;SDS011;5116;52.318;4.644;2023-04-03T13:29:18;0.90;;;0.90;;
10150;SDS011;5116;52.318;4.644;2023-04-03T13:31:56;0.93;;;0.93;;
10150;SDS011;5116;52.318;4.644;2023-04-03T13:34:25;0.80;;;0.80;;
10150;SDS011;5116;52.318;4.644;2023-04-03T13:36:55;1.20;;;0.97;;
10150;SDS011;5116;52.318;4.644;2023-04-03T13:39:28;1.33;;;1.23;;
10150;SDS011;5116;52.318;4.644;2023-04-03T13:42:00;1.10;;;0.97;;
10150;SDS011;5116;52.318;4.644;2023-04-03T13:44:32;0.97;;;0.97;;
10150;SDS011;5116;52.318;4.644;2023-04-03T13:47:14;2.10;;;1.10;;
10150;SDS011;5116;52.318;4.644;2023-04-03T13:49:43;0.90;;;0.90;;
10150;SDS011;5116;52.318;4.644;2023-04-03T13:52:29;0.80;;;0.80;;
10150;SDS011;5116;52.318;4.644;2023-04-03T13:54:59;1.27;;;0.70;;
10150;SDS011;5116;52.318;4.644;2023-04-03T13:57:29;3.47;;;1.00;;
10150;SDS011;5116;52.318;4.644;2023-04-03T13:59:58;0.90;;;0.90;;
10150;SDS011;5116;52.318;4.644;2023-04-03T14:02:31;0.80;;;0.80;;
10150;SDS011;5116;52.318;4.644;2023-04-03T14:05:02;1.00;;;1.00;;
10150;SDS011;5116;52.318;4.644;2023-04-03T14:07:30;0.90;;;0.90;;
10150;SDS011;5116;52.318;4.644;2023-04-03T14:09:59;0.77;;;0.77;;
10150;SDS011;5116;52.318;4.644;2023-04-03T14:12:31;0.97;;;0.97;;
10150;SDS011;5116;52.318;4.644;2023-04-03T14:15:00;1.63;;;0.97;;
10150;SDS011;5116;52.318;4.644;2023-04-03T14:17:28;1.40;;;1.10;;
10150;SDS011;5116;52.318;4.644;2023-04-03T14:19:56;1.10;;;1.00;;
10150;SDS011;5116;52.318;4.644;2023-04-03T14:22:26;1.20;;;1.10;;
10150;SDS011;5116;52.318;4.644;2023-04-03T14:24:55;0.80;;;0.80;;
10150;SDS011;5116;52.318;4.644;2023-04-03T14:29:51;0.80;;;0.80;;
10150;SDS011;5116;52.318;4.644;2023-04-03T14:32:20;1.70;;;0.90;;
10150;SDS011;5116;52.318;4.644;2023-04-03T14:34:48;0.90;;;0.90;;
10150;SDS011;5116;52.318;4.644;2023-04-03T14:37:17;0.60;;;0.60;;
10150;SDS011;5116;52.318;4.644;2023-04-03T14:39:46;0.80;;;0.80;;
10150;SDS011;5116;52.318;4.644;2023-04-03T14:42:14;0.70;;;0.70;;
10150;SDS011;5116;52.318;4.644;2023-04-03T14:44:43;0.70;;;0.70;;
10150;SDS011;5116;52.318;4.644;2023-04-03T14:47:16;0.70;;;0.70;;
10150;SDS011;5116;52.318;4.644;2023-04-03T14:49:57;1.03;;;0.90;;
10150;SDS011;5116;52.318;4.644;2023-04-03T14:52:29;1.00;;;0.90;;
10150;SDS011;5116;52.318;4.644;2023-04-03T14:54:57;1.63;;;1.10;;
10150;SDS011;5116;52.318;4.644;2023-04-03T14:57:26;1.10;;;0.93;;
10150;SDS011;5116;52.318;4.644;2023-04-03T14:59:54;1.23;;;1.10;;
10150;SDS011;5116;52.318;4.644;2023-04-03T15:02:31;0.97;;;0.97;;
10150;SDS011;5116;52.318;4.644;2023-04-03T15:05:06;0.93;;;0.87;;
10150;SDS011;5116;52.318;4.644;2023-04-03T15:07:41;0.80;;;0.80;;
10150;SDS011;5116;52.318;4.644;2023-04-03T15:10:19;0.80;;;0.80;;
10150;SDS011;5116;52.318;4.644;2023-04-03T15:12:51;1.53;;;0.90;;
10150;SDS011;5116;52.318;4.644;2023-04-03T15:15:19;1.17;;;1.07;;
10150;SDS011;5116;52.318;4.644;2023-04-03T15:17:55;0.90;;;0.90;;
10150;SDS011;5116;52.318;4.644;2023-04-03T15:20:25;1.37;;;1.13;;
10150;SDS011;5116;52.318;4.644;2023-04-03T15:22:53;0.80;;;0.80;;
10150;SDS011;5116;52.318;4.644;2023-04-03T15:25:23;0.80;;;0.80;;
10150;SDS011;5116;52.318;4.644;2023-04-03T15:27:52;1.23;;;1.00;;
10150;SDS011;5116;52.318;4.644;2023-04-03T15:30:21;1.15;;;1.15;;
10150;SDS011;5116;52.318;4.644;2023-04-03T15:32:53;1.23;;;1.13;;
10150;SDS011;5116;52.318;4.644;2023-04-03T15:35:21;0.90;;;0.90;;
10150;SDS011;5116;52.318;4.644;2023-04-03T15:37:50;0.93;;;0.93;;
10150;SDS011;5116;52.318;4.644;2023-04-03T15:40:18;1.17;;;1.07;;
10150;SDS011;5116;52.318;4.644;2023-04-03T15:42:46;1.00;;;1.00;;
10150;SDS011;5116;52.318;4.644;2023-04-03T15:45:14;1.00;;;1.00;;
10150;SDS011;5116;52.318;4.644;2023-04-03T15:47:41;1.73;;;1.23;;
10150;SDS011;5116;52.318;4.644;2023-04-03T15:50:09;0.93;;;0.93;;
10150;SDS011;5116;52.318;4.644;2023-04-03T15:52:36;0.83;;;0.83;;
10150;SDS011;5116;52.318;4.644;2023-04-03T15:55:04;1.23;;;1.10;;
10150;SDS011;5116;52.318;4.644;2023-04-03T15:57:32;1.20;;;1.10;;
10150;SDS011;5116;52.318;4.644;2023-04-03T15:59:59;1.23;;;1.17;;
10150;SDS011;5116;52.318;4.644;2023-04-03T16:02:32;1.10;;;1.00;;
10150;SDS011;5116;52.318;4.644;2023-04-03T16:05:00;0.80;;;0.80;;
10150;SDS011;5116;52.318;4.644;2023-04-03T16:07:28;0.90;;;0.90;;
10150;SDS011;5116;52.318;4.644;2023-04-03T16:09:56;1.77;;;1.13;;
10150;SDS011;5116;52.318;4.644;2023-04-03T16:12:36;1.30;;;1.03;;
10150;SDS011;5116;52.318;4.644;2023-04-03T16:15:04;0.87;;;0.87;;
10150;SDS011;5116;52.318;4.644;2023-04-03T16:17:36;1.30;;;1.00;;
10150;SDS011;5116;52.318;4.644;2023-04-03T16:20:11;1.40;;;1.10;;
10150;SDS011;5116;52.318;4.644;2023-04-03T16:22:40;1.00;;;1.00;;
10150;SDS011;5116;52.318;4.644;2023-04-03T16:25:10;1.57;;;1.20;;
10150;SDS011;5116;52.318;4.644;2023-04-03T16:27:42;1.90;;;1.10;;
10150;SDS011;5116;52.318;4.644;2023-04-03T16:30:13;2.57;;;1.00;;
10150;SDS011;5116;52.318;4.644;2023-04-03T16:32:41;1.20;;;1.10;;
10150;SDS011;5116;52.318;4.644;2023-04-03T16:35:10;0.93;;;0.93;;
10150;SDS011;5116;52.318;4.644;2023-04-03T16:37:38;1.27;;;1.17;;
10150;SDS011;5116;52.318;4.644;2023-04-03T16:40:06;1.00;;;1.00;;
10150;SDS011;5116;52.318;4.644;2023-04-03T16:42:34;1.57;;;1.10;;
10150;SDS011;5116;52.318;4.644;2023-04-03T16:45:05;1.23;;;1.10;;
10150;SDS011;5116;52.318;4.644;2023-04-03T16:47:33;0.90;;;0.90;;
10150;SDS011;5116;52.318;4.644;2023-04-03T16:50:01;0.90;;;0.90;;
10150;SDS011;5116;52.318;4.644;2023-04-03T16:52:29;1.20;;;1.10;;
10150;SDS011;5116;52.318;4.644;2023-04-03T16:54:56;0.90;;;0.90;;
10150;SDS011;5116;52.318;4.644;2023-04-03T16:57:25;1.00;;;0.90;;